sensor_id;sensor_type;location;lat;lon;timestamp;temperature;humidity
24772;DHT22;12870;52.274;9.754;2023-04-01T00:01:05;11.00;99.90
24772;DHT22;12870;52.274;9.754;2023-04-01T00:03:31;11.00;99.90
24772;DHT22;12870;52.274;9.754;2023-04-01T00:05:59;11.00;99.90
24772;DHT22;12870;52.274;9.754;2023-04-01T00:08:26;11.00;99.90
24772;DHT22;12870;52.274;9.754;2023-04-01T00:10:53;11.00;99.90
24772;DHT22;12870;52.274;9.754;2023-04-01T00:13:19;11.00;99.90
24772;DHT22;12870;52.274;9.754;2023-04-01T00:15:45;11.00;99.90
24772;DHT22;12870;52.274;9.754;2023-04-01T00:18:11;11.00;99.90
24772;DHT22;12870;52.274;9.754;2023-04-01T00:20:38;10.90;99.90
24772;DHT22;12870;52.274;9.754;2023-04-01T00:23:04;10.90;99.90
24772;DHT22;12870;52.274;9.754;2023-04-01T00:25:31;10.90;99.90
24772;DHT22;12870;52.274;9.754;2023-04-01T00:27:56;10.90;99.90
24772;DHT22;12870;52.274;9.754;2023-04-01T00:30:22;10.90;99.90
24772;DHT22;12870;52.274;9.754;2023-04-01T00:32:51;10.90;99.90
24772;DHT22;12870;52.274;9.754;2023-04-01T00:35:18;11.00;99.90
24772;DHT22;12870;52.274;9.754;2023-04-01T00:37:43;11.00;99.90
24772;DHT22;12870;52.274;9.754;2023-04-01T00:40:25;11.10;99.90
24772;DHT22;12870;52.274;9.754;2023-04-01T00:42:51;11.00;99.90
24772;DHT22;12870;52.274;9.754;2023-04-01T00:45:37;11.00;99.90
24772;DHT22;12870;52.274;9.754;2023-04-01T00:50:43;11.10;99.90
24772;DHT22;12870;52.274;9.754;2023-04-01T00:53:11;11.10;99.90
24772;DHT22;12870;52.274;9.754;2023-04-01T00:55:40;11.10;99.90
24772;DHT22;12870;52.274;9.754;2023-04-01T00:58:11;11.20;99.90
24772;DHT22;12870;52.274;9.754;2023-04-01T01:00:38;11.00;99.90
24772;DHT22;12870;52.274;9.754;2023-04-01T01:03:03;11.10;99.90
24772;DHT22;12870;52.274;9.754;2023-04-01T01:11:08;11.00;99.90
24772;DHT22;12870;52.274;9.754;2023-04-01T01:13:55;10.80;99.90
24772;DHT22;12870;52.274;9.754;2023-04-01T01:16:28;10.90;99.90
24772;DHT22;12870;52.274;9.754;2023-04-01T01:25:06;10.90;99.90
24772;DHT22;12870;52.274;9.754;2023-04-01T01:27:33;10.80;99.90
24772;DHT22;12870;52.274;9.754;2023-04-01T01:30:17;10.70;99.90
24772;DHT22;12870;52.274;9.754;2023-04-01T01:33:09;10.70;99.90
24772;DHT22;12870;52.274;9.754;2023-04-01T01:36:04;10.70;99.90
24772;DHT22;12870;52.274;9.754;2023-04-01T01:38:34;10.70;99.90
24772;DHT22;12870;52.274;9.754;2023-04-01T01:41:01;10.70;99.90
24772;DHT22;12870;52.274;9.754;2023-04-01T01:43:35;10.70;99.90
24772;DHT22;12870;52.274;9.754;2023-04-01T01:46:06;10.70;99.90
24772;DHT22;12870;52.274;9.754;2023-04-01T01:48:34;10.70;99.90
24772;DHT22;12870;52.274;9.754;2023-04-01T01:51:01;10.70;99.90
24772;DHT22;12870;52.274;9.754;2023-04-01T01:53:28;10.70;99.90
24772;DHT22;12870;52.274;9.754;2023-04-01T01:55:53;10.70;99.90
24772;DHT22;12870;52.274;9.754;2023-04-01T01:58:20;10.70;99.90
24772;DHT22;12870;52.274;9.754;2023-04-01T02:00:55;10.70;99.90
24772;DHT22;12870;52.274;9.754;2023-04-01T02:03:25;10.70;99.90
24772;DHT22;12870;52.274;9.754;2023-04-01T02:05:53;10.70;99.90
24772;DHT22;12870;52.274;9.754;2023-04-01T02:08:35;10.70;99.90
24772;DHT22;12870;52.274;9.754;2023-04-01T02:11:05;10.70;99.90
24772;DHT22;12870;52.274;9.754;2023-04-01T02:14:14;10.60;99.90
24772;DHT22;12870;52.274;9.754;2023-04-01T02:16:36;10.60;99.90
24772;DHT22;12870;52.274;9.754;2023-04-01T02:19:05;10.60;99.90
24772;DHT22;12870;52.274;9.754;2023-04-01T02:21:33;10.60;99.90
24772;DHT22;12870;52.274;9.754;2023-04-01T02:24:02;10.60;99.90
24772;DHT22;12870;52.274;9.754;2023-04-01T02:26:30;10.60;99.90
24772;DHT22;12870;52.274;9.754;2023-04-01T02:28:56;10.60;99.90
24772;DHT22;12870;52.274;9.754;2023-04-01T02:31:24;10.60;99.90
24772;DHT22;12870;52.274;9.754;2023-04-01T02:33:50;10.70;99.90
24772;DHT22;12870;52.274;9.754;2023-04-01T02:36:17;10.70;99.90
24772;DHT22;12870;52.274;9.754;2023-04-01T02:38:44;10.70;99.90
24772;DHT22;12870;52.274;9.754;2023-04-01T02:41:11;10.70;99.90
24772;DHT22;12870;52.274;9.754;2023-04-01T02:43:37;10.70;99.90
24772;DHT22;12870;52.274;9.754;2023-04-01T02:46:03;10.70;99.90
24772;DHT22;12870;52.274;9.754;2023-04-01T02:48:29;10.70;99.90
24772;DHT22;12870;52.274;9.754;2023-04-01T02:50:55;10.70;99.90
24772;DHT22;12870;52.274;9.754;2023-04-01T02:53:21;10.70;99.90
24772;DHT22;12870;52.274;9.754;2023-04-01T02:55:47;10.60;99.90
24772;DHT22;12870;52.274;9.754;2023-04-01T02:58:16;10.70;99.90
24772;DHT22;12870;52.274;9.754;2023-04-01T03:00:41;10.70;99.90
24772;DHT22;12870;52.274;9.754;2023-04-01T03:03:07;10.70;99.90
24772;DHT22;12870;52.274;9.754;2023-04-01T03:05:33;10.70;99.90
24772;DHT22;12870;52.274;9.754;2023-04-01T03:07:59;10.70;99.90
24772;DHT22;12870;52.274;9.754;2023-04-01T03:10:24;10.70;99.90
24772;DHT22;12870;52.274;9.754;2023-04-01T03:12:50;10.70;99.90
24772;DHT22;12870;52.274;9.754;2023-04-01T03:15:16;10.70;99.90
24772;DHT22;12870;52.274;9.754;2023-04-01T03:17:42;10.70;99.90
24772;DHT22;12870;52.274;9.754;2023-04-01T03:20:09;10.70;99.90
24772;DHT22;12870;52.274;9.754;2023-04-01T03:22:36;10.70;99.90
24772;DHT22;12870;52.274;9.754;2023-04-01T03:25:03;10.70;99.90
24772;DHT22;12870;52.274;9.754;2023-04-01T03:27:29;10.70;99.90
24772;DHT22;12870;52.274;9.754;2023-04-01T03:29:54;10.70;99.90
24772;DHT22;12870;52.274;9.754;2023-04-01T03:32:20;10.70;99.90
24772;DHT22;12870;52.274;9.754;2023-04-01T03:34:46;10.70;99.90
24772;DHT22;12870;52.274;9.754;2023-04-01T03:37:12;10.80;99.90
24772;DHT22;12870;52.274;9.754;2023-04-01T03:39:38;10.70;99.90
24772;DHT22;12870;52.274;9.754;2023-04-01T03:42:03;10.70;99.90
24772;DHT22;12870;52.274;9.754;2023-04-01T03:44:33;10.70;99.90
24772;DHT22;12870;52.274;9.754;2023-04-01T03:46:59;10.70;99.90
24772;DHT22;12870;52.274;9.754;2023-04-01T03:49:25;10.70;99.90
24772;DHT22;12870;52.274;9.754;2023-04-01T03:51:51;10.70;99.90
24772;DHT22;12870;52.274;9.754;2023-04-01T03:54:17;10.70;99.90
24772;DHT22;12870;52.274;9.754;2023-04-01T03:56:43;10.60;99.90
24772;DHT22;12870;52.274;9.754;2023-04-01T03:59:09;10.70;99.90
24772;DHT22;12870;52.274;9.754;2023-04-01T04:01:35;10.70;99.90
24772;DHT22;12870;52.274;9.754;2023-04-01T04:04:00;10.70;99.90
24772;DHT22;12870;52.274;9.754;2023-04-01T04:06:27;10.70;99.90
24772;DHT22;12870;52.274;9.754;2023-04-01T04:08:53;10.60;99.90
24772;DHT22;12870;52.274;9.754;2023-04-01T04:11:20;10.60;99.90
24772;DHT22;12870;52.274;9.754;2023-04-01T04:13:46;10.60;99.90
24772;DHT22;12870;52.274;9.754;2023-04-01T04:16:13;10.60;99.90
24772;DHT22;12870;52.274;9.754;2023-04-01T04:18:39;10.60;99.90
24772;DHT22;12870;52.274;9.754;2023-04-01T04:21:05;10.60;99.90
24772;DHT22;12870;52.274;9.754;2023-04-01T04:23:31;10.60;99.90
24772;DHT22;12870;52.274;9.754;2023-04-01T04:26:07;10.60;99.90
24772;DHT22;12870;52.274;9.754;2023-04-01T04:28:33;10.60;99.90
24772;DHT22;12870;52.274;9.754;2023-04-01T04:31:00;10.60;99.90
24772;DHT22;12870;52.274;9.754;2023-04-01T04:33:26;10.60;99.90
24772;DHT22;12870;52.274;9.754;2023-04-01T04:35:55;10.50;99.90
24772;DHT22;12870;52.274;9.754;2023-04-01T04:38:21;10.60;99.90
24772;DHT22;12870;52.274;9.754;2023-04-01T04:40:47;10.60;99.90
24772;DHT22;12870;52.274;9.754;2023-04-01T04:43:14;10.60;99.90
24772;DHT22;12870;52.274;9.754;2023-04-01T04:45:41;10.60;99.90
24772;DHT22;12870;52.274;9.754;2023-04-01T04:48:14;10.60;99.90
24772;DHT22;12870;52.274;9.754;2023-04-01T04:50:44;10.60;99.90
24772;DHT22;12870;52.274;9.754;2023-04-01T04:53:12;10.60;99.90
24772;DHT22;12870;52.274;9.754;2023-04-01T04:55:45;10.60;99.90
24772;DHT22;12870;52.274;9.754;2023-04-01T04:58:12;10.60;99.90
24772;DHT22;12870;52.274;9.754;2023-04-01T05:00:37;10.60;99.90
24772;DHT22;12870;52.274;9.754;2023-04-01T05:03:03;10.60;99.90
24772;DHT22;12870;52.274;9.754;2023-04-01T05:05:29;10.60;99.90
24772;DHT22;12870;52.274;9.754;2023-04-01T05:07:54;10.60;99.90
24772;DHT22;12870;52.274;9.754;2023-04-01T05:10:20;10.50;99.90
24772;DHT22;12870;52.274;9.754;2023-04-01T05:12:46;10.50;99.90
24772;DHT22;12870;52.274;9.754;2023-04-01T05:15:12;10.60;99.90
24772;DHT22;12870;52.274;9.754;2023-04-01T05:17:37;10.60;99.90
24772;DHT22;12870;52.274;9.754;2023-04-01T05:20:03;10.60;99.90
24772;DHT22;12870;52.274;9.754;2023-04-01T05:22:29;10.60;99.90
24772;DHT22;12870;52.274;9.754;2023-04-01T05:24:55;10.60;99.90
24772;DHT22;12870;52.274;9.754;2023-04-01T05:27:21;10.60;99.90
24772;DHT22;12870;52.274;9.754;2023-04-01T05:29:46;10.60;99.90
24772;DHT22;12870;52.274;9.754;2023-04-01T05:32:12;10.60;99.90
24772;DHT22;12870;52.274;9.754;2023-04-01T05:34:38;10.60;99.90
24772;DHT22;12870;52.274;9.754;2023-04-01T05:37:04;10.60;99.90
24772;DHT22;12870;52.274;9.754;2023-04-01T05:39:29;10.60;99.90
24772;DHT22;12870;52.274;9.754;2023-04-01T05:41:55;10.60;99.90
24772;DHT22;12870;52.274;9.754;2023-04-01T05:44:21;10.70;99.90
24772;DHT22;12870;52.274;9.754;2023-04-01T05:46:46;10.70;99.90
24772;DHT22;12870;52.274;9.754;2023-04-01T05:49:12;10.70;99.90
24772;DHT22;12870;52.274;9.754;2023-04-01T05:51:38;10.80;99.90
24772;DHT22;12870;52.274;9.754;2023-04-01T05:54:06;10.80;99.90
24772;DHT22;12870;52.274;9.754;2023-04-01T05:56:32;10.80;99.90
24772;DHT22;12870;52.274;9.754;2023-04-01T05:58:58;10.90;99.90
24772;DHT22;12870;52.274;9.754;2023-04-01T06:01:23;10.80;99.90
24772;DHT22;12870;52.274;9.754;2023-04-01T06:03:49;10.90;99.90
24772;DHT22;12870;52.274;9.754;2023-04-01T06:06:27;10.90;99.90
24772;DHT22;12870;52.274;9.754;2023-04-01T06:08:56;11.00;99.90
24772;DHT22;12870;52.274;9.754;2023-04-01T06:21:48;11.10;99.90
24772;DHT22;12870;52.274;9.754;2023-04-01T06:44:33;11.30;99.90
24772;DHT22;12870;52.274;9.754;2023-04-01T06:57:49;11.50;99.90
24772;DHT22;12870;52.274;9.754;2023-04-01T07:00:43;11.50;99.90
24772;DHT22;12870;52.274;9.754;2023-04-01T07:05:47;11.50;99.90
24772;DHT22;12870;52.274;9.754;2023-04-01T07:08:23;11.50;99.90
24772;DHT22;12870;52.274;9.754;2023-04-01T07:11:01;11.60;99.90
24772;DHT22;12870;52.274;9.754;2023-04-01T07:16:29;11.60;99.90
24772;DHT22;12870;52.274;9.754;2023-04-01T07:19:03;11.60;99.90
24772;DHT22;12870;52.274;9.754;2023-04-01T07:24:39;11.70;99.90
24772;DHT22;12870;52.274;9.754;2023-04-01T07:27:04;11.70;99.90
24772;DHT22;12870;52.274;9.754;2023-04-01T07:29:30;11.80;99.90
24772;DHT22;12870;52.274;9.754;2023-04-01T07:37:58;11.80;99.90
24772;DHT22;12870;52.274;9.754;2023-04-01T07:52:04;12.00;99.90
24772;DHT22;12870;52.274;9.754;2023-04-01T07:54:40;12.20;99.90
24772;DHT22;12870;52.274;9.754;2023-04-01T07:57:30;12.40;99.90
24772;DHT22;12870;52.274;9.754;2023-04-01T08:00:31;12.50;99.90
24772;DHT22;12870;52.274;9.754;2023-04-01T08:05:55;12.70;99.90
24772;DHT22;12870;52.274;9.754;2023-04-01T08:16:51;12.60;99.90
24772;DHT22;12870;52.274;9.754;2023-04-01T08:22:28;12.70;99.90
24772;DHT22;12870;52.274;9.754;2023-04-01T08:24:56;12.70;99.90
24772;DHT22;12870;52.274;9.754;2023-04-01T08:27:31;12.90;99.90
24772;DHT22;12870;52.274;9.754;2023-04-01T08:30:18;12.90;99.90
24772;DHT22;12870;52.274;9.754;2023-04-01T08:32:49;13.00;99.90
24772;DHT22;12870;52.274;9.754;2023-04-01T08:35:30;13.10;99.90
24772;DHT22;12870;52.274;9.754;2023-04-01T08:38:02;13.20;99.90
24772;DHT22;12870;52.274;9.754;2023-04-01T08:40:55;13.20;99.90
24772;DHT22;12870;52.274;9.754;2023-04-01T08:46:28;13.40;99.90
24772;DHT22;12870;52.274;9.754;2023-04-01T08:54:04;13.60;99.90
24772;DHT22;12870;52.274;9.754;2023-04-01T09:13:29;13.80;99.90
24772;DHT22;12870;52.274;9.754;2023-04-01T09:36:57;14.00;99.90
24772;DHT22;12870;52.274;9.754;2023-04-01T09:39:36;13.80;99.90
24772;DHT22;12870;52.274;9.754;2023-04-01T09:42:20;13.90;99.90
24772;DHT22;12870;52.274;9.754;2023-04-01T09:45:02;13.80;99.90
24772;DHT22;12870;52.274;9.754;2023-04-01T09:47:45;13.90;99.90
24772;DHT22;12870;52.274;9.754;2023-04-01T10:36:06;13.50;99.90
24772;DHT22;12870;52.274;9.754;2023-04-01T11:23:50;15.30;99.90
24772;DHT22;12870;52.274;9.754;2023-04-01T11:29:16;15.60;99.90
24772;DHT22;12870;52.274;9.754;2023-04-01T11:52:15;15.40;99.90
24772;DHT22;12870;52.274;9.754;2023-04-01T12:00:59;15.50;99.90
24772;DHT22;12870;52.274;9.754;2023-04-01T12:09:17;15.60;99.90
24772;DHT22;12870;52.274;9.754;2023-04-01T12:11:57;15.40;99.90
24772;DHT22;12870;52.274;9.754;2023-04-01T12:17:04;15.40;99.90
24772;DHT22;12870;52.274;9.754;2023-04-01T12:25:42;15.10;99.90
24772;DHT22;12870;52.274;9.754;2023-04-01T12:50:23;15.10;99.90
24772;DHT22;12870;52.274;9.754;2023-04-01T12:53:25;15.00;99.90
24772;DHT22;12870;52.274;9.754;2023-04-01T12:55:48;15.10;99.90
24772;DHT22;12870;52.274;9.754;2023-04-01T13:15:05;15.50;99.90
24772;DHT22;12870;52.274;9.754;2023-04-01T13:28:18;14.90;99.90
24772;DHT22;12870;52.274;9.754;2023-04-01T13:42:06;15.20;99.90
24772;DHT22;12870;52.274;9.754;2023-04-01T13:45:10;15.20;99.90
24772;DHT22;12870;52.274;9.754;2023-04-01T13:47:59;15.10;99.90
24772;DHT22;12870;52.274;9.754;2023-04-01T13:50:52;15.10;99.90
24772;DHT22;12870;52.274;9.754;2023-04-01T14:01:59;15.00;99.90
24772;DHT22;12870;52.274;9.754;2023-04-01T14:04:49;14.80;99.90
24772;DHT22;12870;52.274;9.754;2023-04-01T14:18:07;14.30;99.90
24772;DHT22;12870;52.274;9.754;2023-04-01T14:29:02;13.80;99.90
24772;DHT22;12870;52.274;9.754;2023-04-01T14:32:07;13.80;99.90
24772;DHT22;12870;52.274;9.754;2023-04-01T14:43:10;12.90;99.90
24772;DHT22;12870;52.274;9.754;2023-04-01T14:45:50;12.60;99.90
24772;DHT22;12870;52.274;9.754;2023-04-01T14:54:06;12.10;99.90
24772;DHT22;12870;52.274;9.754;2023-04-01T14:59:07;11.90;99.90
24772;DHT22;12870;52.274;9.754;2023-04-01T15:01:53;11.80;99.90
24772;DHT22;12870;52.274;9.754;2023-04-01T15:04:46;11.70;99.90
24772;DHT22;12870;52.274;9.754;2023-04-01T15:10:09;11.60;99.90
24772;DHT22;12870;52.274;9.754;2023-04-01T15:21:40;11.40;99.90
24772;DHT22;12870;52.274;9.754;2023-04-01T15:27:20;11.20;99.90
24772;DHT22;12870;52.274;9.754;2023-04-01T15:29:41;11.10;99.90
24772;DHT22;12870;52.274;9.754;2023-04-01T15:37:55;10.90;99.90
24772;DHT22;12870;52.274;9.754;2023-04-01T15:40:31;10.70;99.90
24772;DHT22;12870;52.274;9.754;2023-04-01T15:48:58;10.70;99.90
24772;DHT22;12870;52.274;9.754;2023-04-01T15:56:56;10.50;99.90
24772;DHT22;12870;52.274;9.754;2023-04-01T16:13:28;10.40;99.90
24772;DHT22;12870;52.274;9.754;2023-04-01T16:18:52;10.20;99.90
24772;DHT22;12870;52.274;9.754;2023-04-01T16:24:45;9.90;99.90
24772;DHT22;12870;52.274;9.754;2023-04-01T16:32:18;9.90;99.90
24772;DHT22;12870;52.274;9.754;2023-04-01T16:40:47;9.70;99.90
24772;DHT22;12870;52.274;9.754;2023-04-01T16:43:29;9.60;99.90
24772;DHT22;12870;52.274;9.754;2023-04-01T16:51:16;9.50;99.90
24772;DHT22;12870;52.274;9.754;2023-04-01T16:53:48;9.30;99.90
24772;DHT22;12870;52.274;9.754;2023-04-01T16:56:23;9.30;99.90
24772;DHT22;12870;52.274;9.754;2023-04-01T16:59:07;9.30;99.90
24772;DHT22;12870;52.274;9.754;2023-04-01T17:04:57;9.40;99.90
24772;DHT22;12870;52.274;9.754;2023-04-01T17:08:15;9.40;99.90
24772;DHT22;12870;52.274;9.754;2023-04-01T17:10:37;9.30;99.90
24772;DHT22;12870;52.274;9.754;2023-04-01T17:13:32;9.30;99.90
24772;DHT22;12870;52.274;9.754;2023-04-01T17:24:50;9.00;99.90
24772;DHT22;12870;52.274;9.754;2023-04-01T17:35:35;8.90;99.90
24772;DHT22;12870;52.274;9.754;2023-04-01T17:41:01;8.80;99.90
24772;DHT22;12870;52.274;9.754;2023-04-01T17:43:57;8.70;99.90
24772;DHT22;12870;52.274;9.754;2023-04-01T17:54:43;8.50;99.90
24772;DHT22;12870;52.274;9.754;2023-04-01T18:00:25;8.30;99.90
24772;DHT22;12870;52.274;9.754;2023-04-01T18:03:23;8.30;99.90
24772;DHT22;12870;52.274;9.754;2023-04-01T18:25:45;8.00;99.90
24772;DHT22;12870;52.274;9.754;2023-04-01T18:28:33;7.80;99.90
24772;DHT22;12870;52.274;9.754;2023-04-01T18:33:36;7.70;99.90
24772;DHT22;12870;52.274;9.754;2023-04-01T18:38:57;7.80;99.90
24772;DHT22;12870;52.274;9.754;2023-04-01T18:41:30;7.80;99.90
24772;DHT22;12870;52.274;9.754;2023-04-01T18:52:16;7.80;99.90
24772;DHT22;12870;52.274;9.754;2023-04-01T18:55:16;7.80;99.90
24772;DHT22;12870;52.274;9.754;2023-04-01T18:57:58;7.70;99.90
24772;DHT22;12870;52.274;9.754;2023-04-01T19:00:41;7.70;99.90
24772;DHT22;12870;52.274;9.754;2023-04-01T19:05:45;7.60;99.90
24772;DHT22;12870;52.274;9.754;2023-04-01T19:20:26;7.40;99.90
24772;DHT22;12870;52.274;9.754;2023-04-01T19:28:07;7.30;99.90
24772;DHT22;12870;52.274;9.754;2023-04-01T19:36:35;7.10;99.90
24772;DHT22;12870;52.274;9.754;2023-04-01T19:52:39;7.10;99.90
24772;DHT22;12870;52.274;9.754;2023-04-01T19:57:44;7.00;99.90
24772;DHT22;12870;52.274;9.754;2023-04-01T20:05:38;6.90;99.90
24772;DHT22;12870;52.274;9.754;2023-04-01T20:16:17;6.80;99.90
24772;DHT22;12870;52.274;9.754;2023-04-01T20:19:00;6.80;99.90
24772;DHT22;12870;52.274;9.754;2023-04-01T20:21:37;6.70;99.90
24772;DHT22;12870;52.274;9.754;2023-04-01T20:27:17;6.70;99.90
24772;DHT22;12870;52.274;9.754;2023-04-01T20:30:00;6.70;99.90
24772;DHT22;12870;52.274;9.754;2023-04-01T20:36:00;6.60;99.90
24772;DHT22;12870;52.274;9.754;2023-04-01T20:44:20;6.50;99.90
24772;DHT22;12870;52.274;9.754;2023-04-01T20:47:17;6.50;99.90
24772;DHT22;12870;52.274;9.754;2023-04-01T20:52:41;6.40;99.90
24772;DHT22;12870;52.274;9.754;2023-04-01T21:05:56;6.30;99.90
24772;DHT22;12870;52.274;9.754;2023-04-01T21:09:02;6.30;99.90
24772;DHT22;12870;52.274;9.754;2023-04-01T21:22:29;6.00;99.90
24772;DHT22;12870;52.274;9.754;2023-04-01T21:37:06;5.80;99.90
24772;DHT22;12870;52.274;9.754;2023-04-01T22:00:17;5.70;99.90
24772;DHT22;12870;52.274;9.754;2023-04-01T22:06:08;5.80;99.90
24772;DHT22;12870;52.274;9.754;2023-04-01T22:11:42;5.80;99.90
24772;DHT22;12870;52.274;9.754;2023-04-01T22:14:22;5.70;99.90
24772;DHT22;12870;52.274;9.754;2023-04-01T22:16:56;5.70;99.90
24772;DHT22;12870;52.274;9.754;2023-04-01T22:27:26;5.50;99.90
24772;DHT22;12870;52.274;9.754;2023-04-01T22:40:32;5.50;99.90
24772;DHT22;12870;52.274;9.754;2023-04-01T22:43:09;5.50;99.90
24772;DHT22;12870;52.274;9.754;2023-04-01T22:48:47;5.40;99.90
24772;DHT22;12870;52.274;9.754;2023-04-01T22:54:44;5.30;99.90
24772;DHT22;12870;52.274;9.754;2023-04-01T22:57:15;5.30;99.90
24772;DHT22;12870;52.274;9.754;2023-04-01T22:59:52;5.30;99.90
24772;DHT22;12870;52.274;9.754;2023-04-01T23:02:30;5.30;99.90
24772;DHT22;12870;52.274;9.754;2023-04-01T23:04:59;5.30;99.90
24772;DHT22;12870;52.274;9.754;2023-04-01T23:10:27;5.30;99.90
24772;DHT22;12870;52.274;9.754;2023-04-01T23:12:59;5.20;99.90
24772;DHT22;12870;52.274;9.754;2023-04-01T23:15:27;5.20;99.90
24772;DHT22;12870;52.274;9.754;2023-04-01T23:20:53;5.00;99.90
24772;DHT22;12870;52.274;9.754;2023-04-01T23:29:19;5.00;99.90
24772;DHT22;12870;52.274;9.754;2023-04-01T23:31:47;5.00;99.90
24772;DHT22;12870;52.274;9.754;2023-04-01T23:36:44;4.80;99.90
24772;DHT22;12870;52.274;9.754;2023-04-01T23:39:30;4.80;99.90
24772;DHT22;12870;52.274;9.754;2023-04-01T23:42:02;4.80;99.90
24772;DHT22;12870;52.274;9.754;2023-04-01T23:44:29;4.80;99.90
24772;DHT22;12870;52.274;9.754;2023-04-01T23:46:57;4.80;99.90
24772;DHT22;12870;52.274;9.754;2023-04-01T23:49:34;4.80;99.90
24772;DHT22;12870;52.274;9.754;2023-04-01T23:52:19;4.70;99.90
24772;DHT22;12870;52.274;9.754;2023-04-01T23:54:55;4.70;99.90
24772;DHT22;12870;52.274;9.754;2023-04-01T23:57:28;4.80;99.90
